createdAt,value
2024-05-09T00:02:19.674Z,52.6
2024-05-09T00:17:45.607Z,52.9
2024-05-09T00:33:13.137Z,53
2024-05-09T00:48:38.809Z,53.2
2024-05-09T01:04:04.148Z,53.5
2024-05-09T01:19:29.755Z,53.6
2024-05-09T01:34:54.993Z,53.9
2024-05-09T01:50:42.816Z,54.1
2024-05-09T02:06:09.566Z,54.2
2024-05-09T02:21:34.501Z,54.4
2024-05-09T02:36:58.568Z,54.5
2024-05-09T02:52:23.185Z,54.9
2024-05-09T03:07:48.291Z,55.3
2024-05-09T03:23:13.734Z,55.4
2024-05-09T03:38:39.294Z,55.8
2024-05-09T03:54:03.906Z,56.2
2024-05-09T04:09:28.936Z,56.4
2024-05-09T04:24:53.918Z,56.6
2024-05-09T04:40:38.297Z,56.7
2024-05-09T04:56:03.970Z,57
2024-05-09T05:11:29.427Z,56.8
2024-05-09T05:26:54.348Z,57.5
2024-05-09T05:42:18.806Z,57.5
2024-05-09T05:57:44.348Z,57.3
2024-05-09T06:13:09.315Z,57.4
2024-05-09T06:28:33.730Z,57.4
2024-05-09T06:43:58.974Z,57.6
2024-05-09T06:59:26.346Z,57.6
2024-05-09T07:14:51.649Z,57.4
2024-05-09T07:30:35.461Z,57.4
2024-05-09T07:52:38.789Z,57.5
2024-05-09T08:09:21.776Z,57.2
2024-05-09T08:24:47.489Z,56.5
2024-05-09T08:40:38.048Z,56.6
2024-05-09T08:56:04.202Z,56.5
2024-05-09T09:11:29.055Z,55.9
2024-05-09T09:26:54.146Z,55.3
2024-05-09T09:42:20.150Z,55
2024-05-09T09:57:45.649Z,54.8
2024-05-09T10:13:11.082Z,54.6
2024-05-09T10:28:36.666Z,54.4
2024-05-09T10:44:01.860Z,54.1
2024-05-09T10:59:27.209Z,53.9
2024-05-09T11:14:52.339Z,53.4
2024-05-09T11:30:32.987Z,53.3
2024-05-09T11:45:58.938Z,52.3
2024-05-09T12:01:29.029Z,51.7
2024-05-09T12:16:56.369Z,38.2
2024-05-09T12:32:25.658Z,43.9
2024-05-09T12:47:50.423Z,48.1
2024-05-09T13:03:14.267Z,48.9
2024-05-09T13:18:41.126Z,48.4
2024-05-09T13:34:07.291Z,48.1
2024-05-09T13:49:33.095Z,46.3
2024-05-09T14:04:58.704Z,47.9
2024-05-09T14:20:33.123Z,48.9
2024-05-09T14:35:58.274Z,48.4
2024-05-09T14:51:23.467Z,47.4
2024-05-09T15:06:47.710Z,48
2024-05-09T15:22:12.422Z,48.8
2024-05-09T15:37:37.365Z,49.3
2024-05-09T15:53:01.545Z,49.2
2024-05-09T16:08:26.242Z,49.5
2024-05-09T16:23:51.438Z,49.4
2024-05-09T16:39:16.354Z,49.6
2024-05-09T16:54:42.042Z,49.8
2024-05-09T17:10:34.902Z,50
2024-05-09T17:26:00.753Z,50.4
2024-05-09T17:41:25.755Z,50.7
2024-05-09T17:56:50.285Z,50.9
2024-05-09T18:12:15.313Z,51.5
2024-05-09T18:27:39.907Z,51.1
2024-05-09T18:43:09.943Z,51.9
2024-05-09T18:58:34.954Z,52.2
2024-05-09T19:13:59.893Z,52.7
2024-05-09T19:29:25.423Z,53
2024-05-09T19:44:49.598Z,53.4
2024-05-09T20:00:38.470Z,53.4
2024-05-09T20:16:06.236Z,54.1
2024-05-09T20:31:31.630Z,54.5
2024-05-09T20:46:56.477Z,54.8
2024-05-09T21:02:22.656Z,55.1
2024-05-09T21:17:48.496Z,55.6
2024-05-09T21:33:16.183Z,55.8
2024-05-09T21:48:41.991Z,56.9
2024-05-09T22:04:07.402Z,56.6
2024-05-09T22:19:32.848Z,57.1
2024-05-09T22:34:57.890Z,57.4
2024-05-09T22:50:34.232Z,57.7
2024-05-09T23:05:59.621Z,58.1
2024-05-09T23:21:24.266Z,58.5
2024-05-09T23:36:49.254Z,59.1
2024-05-09T23:52:14.908Z,59.3
